createdAt,value
2017-02-20T00:00:24.691Z,6.69
2017-02-20T00:01:24.705Z,6.73
2017-02-20T00:02:24.727Z,6.85
2017-02-20T00:03:24.733Z,6.76
2017-02-20T00:04:24.763Z,6.7
2017-02-20T00:05:24.781Z,6.76
2017-02-20T00:06:24.803Z,6.74
2017-02-20T00:07:24.822Z,6.79
2017-02-20T00:08:24.820Z,6.71
2017-02-20T00:09:24.857Z,6.81
2017-02-20T00:10:24.882Z,6.77
2017-02-20T00:11:24.883Z,6.71
2017-02-20T00:12:24.909Z,6.67
2017-02-20T00:13:24.923Z,6.69
2017-02-20T00:14:24.943Z,6.7
2017-02-20T00:15:39.477Z,6.76
2017-02-20T00:16:24.978Z,6.71
2017-02-20T00:17:24.621Z,6.71
2017-02-20T00:18:24.626Z,6.77
2017-02-20T00:19:24.650Z,6.77
2017-02-20T00:20:25.052Z,6.71
2017-02-20T00:21:25.067Z,6.7
2017-02-20T00:22:24.699Z,6.84
2017-02-20T00:23:25.112Z,6.88
2017-02-20T00:24:24.741Z,6.71
2017-02-20T00:26:39.699Z,6.77
2017-02-20T00:27:25.181Z,6.85
2017-02-20T00:28:25.206Z,6.79
2017-02-20T00:29:25.218Z,6.77
2017-02-20T00:30:25.185Z,6.87
2017-02-20T00:31:25.256Z,6.79
2017-02-20T00:32:24.878Z,6.79
2017-02-20T00:33:25.321Z,6.87
2017-02-20T00:34:24.931Z,6.84
2017-02-20T00:35:24.973Z,6.77
2017-02-20T00:36:25.347Z,6.94
2017-02-20T00:37:24.974Z,6.79
2017-02-20T00:38:39.893Z,6.81
2017-02-20T00:39:25.005Z,6.79
2017-02-20T00:40:25.027Z,6.8
2017-02-20T00:41:25.432Z,6.91
2017-02-20T00:42:39.967Z,6.98
2017-02-20T00:44:25.485Z,6.81
2017-02-20T00:45:25.518Z,6.79
2017-02-20T00:46:25.537Z,6.79
2017-02-20T00:47:25.559Z,6.77
2017-02-20T00:48:25.177Z,6.8
2017-02-20T00:49:25.574Z,6.87
2017-02-20T00:50:25.211Z,6.77
2017-02-20T00:51:25.629Z,6.69
2017-02-20T00:52:25.635Z,6.69
2017-02-20T00:53:25.655Z,6.76
2017-02-20T00:55:25.697Z,6.67
2017-02-20T00:56:25.720Z,6.73
2017-02-20T00:58:40.273Z,6.74
2017-02-20T00:59:25.395Z,6.76
2017-02-20T01:00:25.805Z,6.69
2017-02-20T01:01:25.414Z,6.73
2017-02-20T01:02:25.838Z,6.73
2017-02-20T01:03:25.858Z,6.7
2017-02-20T01:04:25.863Z,6.73
2017-02-20T01:05:25.892Z,6.76
2017-02-20T01:06:25.900Z,6.71
2017-02-20T01:07:25.931Z,6.67
2017-02-20T01:08:25.928Z,6.74
2017-02-20T01:09:25.954Z,6.69
2017-02-20T01:10:25.986Z,6.62
2017-02-20T01:11:26.007Z,6.62
2017-02-20T01:12:26.019Z,6.59
2017-02-20T01:13:26.035Z,6.66
2017-02-20T01:15:26.063Z,6.56
2017-02-20T01:16:26.089Z,6.61
2017-02-20T01:17:26.108Z,6.61
2017-02-20T01:18:26.110Z,6.64
2017-02-20T01:19:26.134Z,6.64
2017-02-20T01:20:26.155Z,6.61
2017-02-20T01:21:26.178Z,6.64
2017-02-20T01:22:26.199Z,6.66
2017-02-20T01:24:26.230Z,6.62
2017-02-20T01:25:26.254Z,6.58
2017-02-20T01:26:26.280Z,6.61
2017-02-20T01:27:26.278Z,6.56
2017-02-20T01:28:26.324Z,6.66
2017-02-20T01:29:40.844Z,6.61
2017-02-20T01:30:26.349Z,6.64
2017-02-20T01:31:26.354Z,6.56
2017-02-20T01:34:26.439Z,6.59
2017-02-20T01:35:26.457Z,6.56
2017-02-20T01:36:26.456Z,6.64
2017-02-20T01:37:26.480Z,6.62
2017-02-20T01:38:26.482Z,6.59
2017-02-20T01:39:26.513Z,6.59
2017-02-20T01:40:26.524Z,6.61
2017-02-20T01:41:41.055Z,6.56
2017-02-20T01:42:26.171Z,6.66
2017-02-20T01:43:26.601Z,6.66
2017-02-20T01:44:26.608Z,6.67
2017-02-20T01:45:26.642Z,6.67
2017-02-20T01:46:26.634Z,6.64
2017-02-20T01:47:26.658Z,6.58
2017-02-20T01:48:26.689Z,6.64
2017-02-20T01:49:26.698Z,6.69
2017-02-20T01:50:26.705Z,6.54
2017-02-20T01:51:26.725Z,6.67
2017-02-20T01:52:26.736Z,6.66
2017-02-20T01:53:41.283Z,6.61
2017-02-20T01:54:26.784Z,6.61
2017-02-20T01:55:26.813Z,6.64
2017-02-20T01:56:41.335Z,6.64
2017-02-20T01:57:26.841Z,6.62
2017-02-20T01:58:26.863Z,6.62
2017-02-20T01:59:26.491Z,6.67
2017-02-20T02:00:26.903Z,6.71
2017-02-20T02:01:41.426Z,6.67
2017-02-20T02:02:26.953Z,6.58
2017-02-20T02:03:41.472Z,6.59
2017-02-20T02:04:27.000Z,6.62
2017-02-20T02:05:26.980Z,6.61
2017-02-20T02:07:41.556Z,6.66
2017-02-20T02:08:27.055Z,6.55
2017-02-20T02:10:27.096Z,6.54
2017-02-20T02:11:27.099Z,6.61
2017-02-20T02:12:27.113Z,6.64
2017-02-20T02:13:27.136Z,6.64
2017-02-20T02:14:27.150Z,6.62
2017-02-20T02:15:27.175Z,6.62
2017-02-20T02:16:27.192Z,6.66
2017-02-20T02:18:27.237Z,6.58
2017-02-20T02:19:27.241Z,6.73
2017-02-20T02:20:27.263Z,6.67
2017-02-20T02:21:27.293Z,6.61
2017-02-20T02:22:27.301Z,6.76
2017-02-20T02:23:27.354Z,6.71
2017-02-20T02:24:27.343Z,6.67
2017-02-20T02:25:27.355Z,6.67
2017-02-20T02:26:27.379Z,6.64
2017-02-20T02:27:27.395Z,6.62
2017-02-20T02:28:27.404Z,6.64
2017-02-20T02:29:27.441Z,6.59
2017-02-20T02:30:27.453Z,6.59
2017-02-20T02:31:27.472Z,6.61
2017-02-20T02:32:27.494Z,6.66
2017-02-20T02:33:42.013Z,6.55
2017-02-20T02:34:27.527Z,6.61
2017-02-20T02:35:27.540Z,6.62
2017-02-20T02:36:27.552Z,6.66
2017-02-20T02:37:27.566Z,6.66
2017-02-20T02:38:27.204Z,6.69
2017-02-20T02:39:27.614Z,6.73
2017-02-20T02:40:27.241Z,6.77
2017-02-20T02:41:27.654Z,6.69
2017-02-20T02:42:27.283Z,6.64
2017-02-20T02:43:27.691Z,6.79
2017-02-20T02:44:27.715Z,6.74
2017-02-20T02:46:27.744Z,6.77
2017-02-20T02:47:27.770Z,6.73
2017-02-20T02:48:27.784Z,6.7
2017-02-20T02:49:42.310Z,6.73
2017-02-20T02:50:27.824Z,6.71
2017-02-20T02:51:27.849Z,6.69
2017-02-20T02:52:27.867Z,6.74
2017-02-20T02:53:27.875Z,6.7
2017-02-20T02:54:42.407Z,6.64
2017-02-20T02:55:27.911Z,6.62
2017-02-20T02:56:27.925Z,6.56
2017-02-20T02:57:27.946Z,6.62
2017-02-20T02:58:27.980Z,6.64
2017-02-20T02:59:27.983Z,6.73
2017-02-20T03:00:28.018Z,6.73
2017-02-20T03:01:28.026Z,6.7
2017-02-20T03:02:28.043Z,6.71
2017-02-20T03:04:42.595Z,6.79
2017-02-20T03:05:28.093Z,6.7
2017-02-20T03:06:28.114Z,6.69
2017-02-20T03:07:42.653Z,6.73
2017-02-20T03:08:28.169Z,6.62
2017-02-20T03:09:28.473Z,6.62
2017-02-20T03:10:28.196Z,6.64
2017-02-20T03:11:28.218Z,6.61
2017-02-20T03:12:28.234Z,6.66
2017-02-20T03:13:28.273Z,6.58
2017-02-20T03:14:28.262Z,6.66
2017-02-20T03:15:28.287Z,6.73
2017-02-20T03:16:42.810Z,6.74
2017-02-20T03:17:28.331Z,6.74
2017-02-20T03:18:28.334Z,6.66
2017-02-20T03:19:28.357Z,6.73
2017-02-20T03:20:28.407Z,6.69
2017-02-20T03:21:28.391Z,6.59
2017-02-20T03:22:28.411Z,6.67
2017-02-20T03:24:28.776Z,6.67
2017-02-20T03:25:28.462Z,6.64
2017-02-20T03:26:28.503Z,6.7
2017-02-20T03:27:28.516Z,6.74
2017-02-20T03:28:28.526Z,6.64
2017-02-20T03:29:28.534Z,6.73
2017-02-20T03:30:28.569Z,6.62
2017-02-20T03:31:28.589Z,6.64
2017-02-20T03:32:28.589Z,6.64
2017-02-20T03:33:28.612Z,6.77
2017-02-20T03:34:28.629Z,6.74
2017-02-20T03:35:28.659Z,6.71
2017-02-20T03:36:43.182Z,6.81
2017-02-20T03:40:28.341Z,6.71
2017-02-20T03:41:28.372Z,6.71
2017-02-20T03:42:28.785Z,6.67
2017-02-20T03:43:28.800Z,6.73
2017-02-20T03:44:28.428Z,6.76
2017-02-20T03:45:28.836Z,6.71
2017-02-20T03:46:28.863Z,6.79
2017-02-20T03:47:28.876Z,6.73
2017-02-20T03:48:28.892Z,6.69
2017-02-20T03:50:28.541Z,6.67
2017-02-20T03:51:28.930Z,6.76
2017-02-20T03:52:43.473Z,6.73
2017-02-20T03:53:28.599Z,6.76
2017-02-20T03:54:28.616Z,6.71
2017-02-20T03:55:43.535Z,6.71
2017-02-20T03:56:28.254Z,6.71
2017-02-20T03:57:28.659Z,6.76
2017-02-20T03:58:29.074Z,6.7
2017-02-20T03:59:29.104Z,6.7
2017-02-20T04:00:29.124Z,6.7
2017-02-20T04:01:29.142Z,6.69
2017-02-20T04:02:29.137Z,6.73
2017-02-20T04:03:29.174Z,6.85
2017-02-20T04:04:29.189Z,6.77
2017-02-20T04:05:29.210Z,6.76
2017-02-20T04:06:29.230Z,6.74
2017-02-20T04:07:29.248Z,6.67
2017-02-20T04:08:43.764Z,6.74
2017-02-20T04:09:29.266Z,6.76
2017-02-20T04:10:29.298Z,6.74
2017-02-20T04:11:29.315Z,6.73
2017-02-20T04:12:29.331Z,6.66
2017-02-20T04:13:29.343Z,6.74
2017-02-20T04:14:43.883Z,6.76
2017-02-20T04:15:29.398Z,6.64
2017-02-20T04:16:29.417Z,6.67
2017-02-20T04:17:29.435Z,6.76
2017-02-20T04:18:29.453Z,6.76
2017-02-20T04:19:29.073Z,6.73
2017-02-20T04:21:29.495Z,6.79
2017-02-20T04:22:29.519Z,6.77
2017-02-20T04:23:29.529Z,6.79
2017-02-20T04:24:44.070Z,6.79
2017-02-20T04:25:29.587Z,6.76
2017-02-20T04:26:29.583Z,6.71
2017-02-20T04:27:29.611Z,6.77
2017-02-20T04:28:29.632Z,6.77
2017-02-20T04:29:29.646Z,6.81
2017-02-20T04:30:29.678Z,6.85
2017-02-20T04:31:29.704Z,6.77
2017-02-20T04:32:29.715Z,6.77
2017-02-20T04:33:29.713Z,6.76
2017-02-20T04:34:29.736Z,6.89
2017-02-20T04:35:29.809Z,6.8
2017-02-20T04:36:29.775Z,6.74
2017-02-20T04:37:29.790Z,6.77
2017-02-20T04:38:29.811Z,6.85
2017-02-20T04:39:44.340Z,6.81
2017-02-20T04:40:29.857Z,6.73
2017-02-20T04:41:29.870Z,6.87
2017-02-20T04:42:29.881Z,6.77
2017-02-20T04:43:29.906Z,6.81
2017-02-20T04:44:29.927Z,6.74
2017-02-20T04:45:29.942Z,6.77
2017-02-20T04:47:29.980Z,6.77
2017-02-20T04:48:30.000Z,6.91
2017-02-20T04:49:30.031Z,6.95
2017-02-20T04:50:29.644Z,6.81
2017-02-20T04:52:30.087Z,6.85
2017-02-20T04:53:30.091Z,6.84
2017-02-20T04:54:30.136Z,6.81
2017-02-20T04:55:30.135Z,6.81
2017-02-20T04:56:30.135Z,6.81
2017-02-20T04:57:30.166Z,6.74
2017-02-20T04:58:30.183Z,6.73
2017-02-20T04:59:30.202Z,6.74
2017-02-20T05:00:30.224Z,6.77
2017-02-20T05:01:30.249Z,6.8
2017-02-20T05:02:30.257Z,6.74
2017-02-20T05:03:30.573Z,6.74
2017-02-20T05:04:30.303Z,6.74
2017-02-20T05:05:30.313Z,6.8
2017-02-20T05:06:30.329Z,6.79
2017-02-20T05:08:30.402Z,6.84
2017-02-20T05:09:30.391Z,6.79
2017-02-20T05:11:44.932Z,6.81
2017-02-20T05:12:30.440Z,6.88
2017-02-20T05:13:44.980Z,6.85
2017-02-20T05:14:44.612Z,6.84
2017-02-20T05:15:30.491Z,6.8
2017-02-20T05:16:45.047Z,6.8
2017-02-20T05:17:30.132Z,6.73
2017-02-20T05:18:30.553Z,6.79
2017-02-20T05:19:30.566Z,6.89
2017-02-20T05:20:30.206Z,6.81
2017-02-20T05:21:30.216Z,6.87
2017-02-20T05:22:45.136Z,6.76
2017-02-20T05:23:30.663Z,6.8
2017-02-20T05:24:30.287Z,6.79
2017-02-20T05:25:30.325Z,6.91
2017-02-20T05:26:30.709Z,6.88
2017-02-20T05:27:45.240Z,6.8
2017-02-20T05:28:30.728Z,6.8
2017-02-20T05:29:45.274Z,6.91
2017-02-20T05:30:30.788Z,6.95
2017-02-20T05:31:30.796Z,6.85
2017-02-20T05:32:30.804Z,6.87
2017-02-20T05:33:30.833Z,6.94
2017-02-20T05:34:30.842Z,6.8
2017-02-20T05:35:30.870Z,6.85
2017-02-20T05:36:30.888Z,6.91
2017-02-20T05:37:30.897Z,6.97
2017-02-20T05:38:30.935Z,6.84
2017-02-20T05:39:30.938Z,6.89
2017-02-20T05:40:30.568Z,6.84
2017-02-20T05:41:31.014Z,6.77
2017-02-20T05:42:31.000Z,6.88
2017-02-20T05:43:45.557Z,6.77
2017-02-20T05:44:31.042Z,6.76
2017-02-20T05:45:31.040Z,6.88
2017-02-20T05:47:45.608Z,6.81
2017-02-20T05:48:31.121Z,6.84
2017-02-20T05:49:31.119Z,6.81
2017-02-20T05:50:30.769Z,6.91
2017-02-20T05:51:31.162Z,6.87
2017-02-20T05:52:31.202Z,6.84
2017-02-20T05:53:31.214Z,6.85
2017-02-20T05:54:31.211Z,6.84
2017-02-20T05:55:31.234Z,6.87
2017-02-20T05:56:31.248Z,6.88
2017-02-20T05:57:31.296Z,6.77
2017-02-20T05:59:45.832Z,6.74
2017-02-20T06:00:31.336Z,6.77
2017-02-20T06:01:45.865Z,6.73
2017-02-20T06:02:31.366Z,6.84
2017-02-20T06:03:31.376Z,6.7
2017-02-20T06:04:31.419Z,6.74
2017-02-20T06:05:31.048Z,6.79
2017-02-20T06:06:31.439Z,6.73
2017-02-20T06:07:31.466Z,6.76
2017-02-20T06:08:31.775Z,6.85
2017-02-20T06:09:31.500Z,6.74
2017-02-20T06:10:46.024Z,6.77
2017-02-20T06:11:31.533Z,6.85
2017-02-20T06:12:31.548Z,6.77
2017-02-20T06:13:31.589Z,6.8
2017-02-20T06:14:46.100Z,6.79
2017-02-20T06:15:31.612Z,6.89
2017-02-20T06:16:31.248Z,6.74
2017-02-20T06:17:31.649Z,6.8
2017-02-20T06:18:46.180Z,6.85
2017-02-20T06:19:31.680Z,6.87
2017-02-20T06:20:31.311Z,6.92
2017-02-20T06:22:31.731Z,6.89
2017-02-20T06:23:31.749Z,6.87
2017-02-20T06:24:31.777Z,6.89
2017-02-20T06:25:31.780Z,6.91
2017-02-20T06:26:31.044Z,6.98
2017-02-20T06:27:31.827Z,6.89
2017-02-20T06:28:31.457Z,6.92
2017-02-20T06:29:31.874Z,6.91
2017-02-20T06:30:31.900Z,6.8
2017-02-20T06:31:31.507Z,6.85
2017-02-20T06:32:31.911Z,6.85
2017-02-20T06:33:31.950Z,6.84
2017-02-20T06:34:31.964Z,6.92
2017-02-20T06:35:32.189Z,6.88
2017-02-20T06:36:32.013Z,6.92
2017-02-20T06:38:32.057Z,6.94
2017-02-20T06:39:32.058Z,6.99
2017-02-20T06:40:46.580Z,6.99
2017-02-20T06:41:46.596Z,6.97
2017-02-20T06:42:31.730Z,6.95
2017-02-20T06:44:32.145Z,6.98
2017-02-20T06:45:32.165Z,6.98
2017-02-20T06:46:46.691Z,6.99
2017-02-20T06:47:32.208Z,7.02
2017-02-20T06:48:32.243Z,6.91
2017-02-20T06:49:32.231Z,6.95
2017-02-20T06:50:32.260Z,7.09
2017-02-20T06:51:32.276Z,7.09
2017-02-20T06:52:32.293Z,7.09
2017-02-20T06:53:32.331Z,7.15
2017-02-20T06:54:32.333Z,7.05
2017-02-20T06:55:32.340Z,7.07
2017-02-20T06:57:32.387Z,7.03
2017-02-20T06:58:32.395Z,7.02
2017-02-20T06:59:32.424Z,7.07
2017-02-20T07:00:32.443Z,7.06
2017-02-20T07:01:32.092Z,7.1
2017-02-20T07:02:47.011Z,7.12
2017-02-20T07:03:32.492Z,7.09
2017-02-20T07:04:32.521Z,7.06
2017-02-20T07:06:32.545Z,7.15
2017-02-20T07:07:32.569Z,7.1
2017-02-20T07:08:32.584Z,7.1
2017-02-20T07:09:32.613Z,7.07
2017-02-20T07:10:32.659Z,7.13
2017-02-20T07:11:32.653Z,7.16
2017-02-20T07:12:32.656Z,7.25
2017-02-20T07:13:32.686Z,7.17
2017-02-20T07:15:32.712Z,7.15
2017-02-20T07:16:32.746Z,7.16
2017-02-20T07:17:32.765Z,7.16
2017-02-20T07:18:47.304Z,7.16
2017-02-20T07:19:32.782Z,7.24
2017-02-20T07:20:32.828Z,7.25
2017-02-20T07:21:32.883Z,7.28
2017-02-20T07:22:32.851Z,7.24
2017-02-20T07:23:32.864Z,7.15
2017-02-20T07:24:32.882Z,7.27
2017-02-20T07:25:32.907Z,7.25
2017-02-20T07:26:32.919Z,7.28
2017-02-20T07:27:32.953Z,7.27
2017-02-20T07:28:32.957Z,7.28
2017-02-20T07:29:32.978Z,7.24
2017-02-20T07:30:47.507Z,7.3
2017-02-20T07:31:33.010Z,7.39
2017-02-20T07:32:33.038Z,7.35
2017-02-20T07:33:33.042Z,7.34
2017-02-20T07:34:47.587Z,7.32
2017-02-20T07:35:33.083Z,7.35
2017-02-20T07:36:33.120Z,7.25
2017-02-20T07:37:33.133Z,7.24
2017-02-20T07:38:33.450Z,7.25
2017-02-20T07:39:33.172Z,7.42
2017-02-20T07:40:33.181Z,7.32
2017-02-20T07:41:33.203Z,7.42
2017-02-20T07:42:33.221Z,7.35
2017-02-20T07:43:33.233Z,7.42
2017-02-20T07:44:47.789Z,7.39
2017-02-20T07:45:33.290Z,7.45
2017-02-20T07:46:33.325Z,7.42
2017-02-20T07:47:33.325Z,7.49
2017-02-20T07:48:33.340Z,7.52
2017-02-20T07:49:47.882Z,7.52
2017-02-20T07:50:33.385Z,7.55
2017-02-20T07:52:33.426Z,7.45
2017-02-20T07:53:33.433Z,7.46
2017-02-20T07:54:47.964Z,7.5
2017-02-20T07:55:33.489Z,7.49
2017-02-20T07:56:33.485Z,7.52
2017-02-20T07:57:33.507Z,7.5
2017-02-20T07:58:33.520Z,7.58
2017-02-20T07:59:33.545Z,7.55
2017-02-20T08:00:33.574Z,7.5
2017-02-20T08:01:33.577Z,7.49
2017-02-20T08:02:33.614Z,7.48
2017-02-20T08:03:33.239Z,7.49
2017-02-20T08:04:33.642Z,7.52
2017-02-20T08:05:33.676Z,7.63
2017-02-20T08:06:33.664Z,7.58
2017-02-20T08:07:33.709Z,7.53
2017-02-20T08:09:33.749Z,7.49
2017-02-20T08:10:48.266Z,7.55
2017-02-20T08:11:33.767Z,7.55
2017-02-20T08:12:33.794Z,7.6
2017-02-20T08:13:33.806Z,7.63
2017-02-20T08:14:33.840Z,7.71
2017-02-20T08:15:33.854Z,7.64
2017-02-20T08:16:48.377Z,7.58
2017-02-20T08:17:33.903Z,7.63
2017-02-20T08:18:33.909Z,7.79
2017-02-20T08:19:33.929Z,7.61
2017-02-20T08:20:33.933Z,7.71
2017-02-20T08:21:48.493Z,7.87
2017-02-20T08:22:33.980Z,7.79
2017-02-20T08:23:48.567Z,7.83
2017-02-20T08:24:48.534Z,7.85
2017-02-20T08:25:34.042Z,7.98
2017-02-20T08:26:34.058Z,8.07
2017-02-20T08:27:34.078Z,8.05
2017-02-20T08:28:34.086Z,7.93
2017-02-20T08:29:34.135Z,7.92
2017-02-20T08:30:34.128Z,7.92
2017-02-20T08:31:48.663Z,8.01
2017-02-20T08:32:34.196Z,8.01
2017-02-20T08:33:34.191Z,7.97
2017-02-20T08:34:48.719Z,8
2017-02-20T08:35:34.251Z,8.07
2017-02-20T08:36:34.246Z,8.07
2017-02-20T08:37:48.777Z,8.04
2017-02-20T08:38:34.301Z,8.05
2017-02-20T08:39:34.325Z,8.11
2017-02-20T08:40:48.844Z,8.15
2017-02-20T08:41:34.354Z,8.16
2017-02-20T08:42:34.349Z,8.33
2017-02-20T08:43:34.385Z,8.34
2017-02-20T08:45:34.415Z,8.41
2017-02-20T08:46:34.437Z,8.37
2017-02-20T08:47:34.467Z,8.43
2017-02-20T08:48:34.488Z,8.43
2017-02-20T08:49:34.503Z,8.43
2017-02-20T08:50:34.130Z,8.4
2017-02-20T08:51:34.532Z,8.43
2017-02-20T08:52:34.549Z,8.56
2017-02-20T08:53:49.108Z,8.38
2017-02-20T08:54:34.596Z,8.4
2017-02-20T08:55:34.617Z,8.4
2017-02-20T08:56:34.640Z,8.43
2017-02-20T08:57:34.654Z,8.45
2017-02-20T08:58:34.671Z,8.34
2017-02-20T09:00:34.724Z,8.37
2017-02-20T09:01:34.731Z,8.44
2017-02-20T09:02:34.748Z,8.4
2017-02-20T09:03:34.777Z,8.36
2017-02-20T09:04:34.798Z,8.4
2017-02-20T09:05:34.834Z,8.33
2017-02-20T09:06:34.830Z,8.36
2017-02-20T09:07:34.853Z,8.4
2017-02-20T09:08:34.883Z,8.44
2017-02-20T09:09:49.420Z,8.37
2017-02-20T09:10:34.909Z,8.4
2017-02-20T09:11:34.950Z,8.3
2017-02-20T09:12:34.964Z,8.44
2017-02-20T09:13:34.960Z,8.45
2017-02-20T09:14:35.004Z,8.44
2017-02-20T09:15:35.009Z,8.5
2017-02-20T09:16:35.025Z,8.62
2017-02-20T09:17:35.054Z,8.56
2017-02-20T09:18:35.069Z,8.65
2017-02-20T09:19:35.084Z,8.65
2017-02-20T09:20:34.721Z,8.73
2017-02-20T09:21:35.133Z,8.79
2017-02-20T09:22:35.143Z,8.86
2017-02-20T09:23:35.159Z,8.84
2017-02-20T09:24:49.695Z,8.86
2017-02-20T09:25:35.207Z,8.91
2017-02-20T09:26:35.228Z,8.87
2017-02-20T09:27:35.246Z,8.99
2017-02-20T09:28:35.284Z,8.89
2017-02-20T09:29:35.291Z,9.01
2017-02-20T09:30:35.307Z,9.01
2017-02-20T09:31:35.324Z,9.01
2017-02-20T09:32:35.349Z,9.17
2017-02-20T09:33:35.372Z,9.14
2017-02-20T09:34:35.398Z,9.08
2017-02-20T09:35:35.402Z,8.96
2017-02-20T09:36:49.936Z,8.94
2017-02-20T09:37:35.084Z,8.99
2017-02-20T09:39:35.492Z,8.89
2017-02-20T09:40:35.517Z,8.91
2017-02-20T09:41:35.144Z,8.86
2017-02-20T09:42:35.561Z,8.91
2017-02-20T09:43:35.185Z,8.87
2017-02-20T09:44:35.590Z,8.89
2017-02-20T09:45:35.601Z,8.89
2017-02-20T09:46:35.649Z,9.08
2017-02-20T09:47:35.650Z,8.91
2017-02-20T09:48:35.674Z,8.98
2017-02-20T09:49:35.681Z,8.99
2017-02-20T09:50:35.317Z,9.08
2017-02-20T09:51:35.335Z,9.15
2017-02-20T09:52:35.764Z,9.14
2017-02-20T09:53:35.771Z,9.24
2017-02-20T09:54:35.780Z,9.21
2017-02-20T09:55:35.418Z,9.24
2017-02-20T09:56:50.342Z,9.05
2017-02-20T09:57:35.841Z,9.13
2017-02-20T09:58:35.855Z,9.17
2017-02-20T09:59:35.495Z,9.15
2017-02-20T10:00:50.423Z,9.2
2017-02-20T10:01:35.539Z,9.24
2017-02-20T10:02:35.561Z,9.21
2017-02-20T10:03:36.374Z,9.23
2017-02-20T10:04:35.596Z,9.21
2017-02-20T10:06:36.026Z,9.36
2017-02-20T10:07:36.052Z,9.32
2017-02-20T10:08:36.067Z,9.23
2017-02-20T10:09:36.089Z,9.31
2017-02-20T10:10:36.112Z,9.39
2017-02-20T10:11:36.142Z,9.38
2017-02-20T10:12:50.665Z,9.39
2017-02-20T10:14:36.177Z,9.31
2017-02-20T10:15:35.819Z,9.39
2017-02-20T10:16:36.218Z,9.28
2017-02-20T10:17:36.258Z,9.18
2017-02-20T10:18:36.274Z,9.29
2017-02-20T10:19:36.303Z,9.33
2017-02-20T10:20:36.310Z,9.23
2017-02-20T10:21:36.329Z,9.36
2017-02-20T10:22:36.343Z,9.38
2017-02-20T10:23:36.361Z,9.39
2017-02-20T10:24:36.408Z,9.32
2017-02-20T10:25:36.421Z,9.39
2017-02-20T10:26:36.038Z,9.38
2017-02-20T10:27:36.454Z,9.46
2017-02-20T10:28:50.984Z,9.35
2017-02-20T10:29:36.485Z,9.38
2017-02-20T10:30:36.507Z,9.36
2017-02-20T10:31:36.539Z,9.47
2017-02-20T10:32:36.555Z,9.43
2017-02-20T10:33:36.592Z,9.56
2017-02-20T10:34:36.607Z,9.57
2017-02-20T10:35:36.613Z,9.61
2017-02-20T10:36:36.658Z,9.61
2017-02-20T10:37:36.660Z,9.56
2017-02-20T10:38:36.665Z,9.6
2017-02-20T10:39:36.708Z,9.58
2017-02-20T10:40:36.711Z,9.68
2017-02-20T10:41:36.746Z,9.83
2017-02-20T10:42:36.364Z,9.87
2017-02-20T10:43:36.804Z,10.01
2017-02-20T10:44:51.306Z,10.07
2017-02-20T10:45:36.436Z,10.04
2017-02-20T10:46:36.829Z,10.07
2017-02-20T10:47:36.889Z,10.05
2017-02-20T10:48:36.866Z,10.09
2017-02-20T10:49:36.904Z,9.99
2017-02-20T10:50:36.538Z,10.02
2017-02-20T10:51:36.551Z,10.05
2017-02-20T10:52:51.490Z,10.01
2017-02-20T10:53:36.980Z,10.07
2017-02-20T10:54:37.013Z,10.02
2017-02-20T10:55:37.019Z,9.99
2017-02-20T10:56:51.555Z,9.91
2017-02-20T10:57:37.054Z,9.99
2017-02-20T10:58:37.336Z,9.94
2017-02-20T10:59:51.238Z,10.02
2017-02-20T11:00:37.127Z,10.07
2017-02-20T11:01:36.769Z,10.2
2017-02-20T11:02:37.188Z,10.15
2017-02-20T11:03:37.201Z,10.14
2017-02-20T11:04:37.212Z,10.22
2017-02-20T11:05:51.749Z,10.27
2017-02-20T11:06:37.254Z,10.22
2017-02-20T11:07:36.904Z,10.3
2017-02-20T11:08:37.296Z,10.26
2017-02-20T11:09:37.329Z,10.25
2017-02-20T11:10:37.344Z,10.27
2017-02-20T11:11:51.867Z,10.34
2017-02-20T11:12:37.370Z,10.36
2017-02-20T11:13:37.421Z,10.22
2017-02-20T11:14:37.420Z,10.15
2017-02-20T11:16:37.460Z,10.22
2017-02-20T11:17:37.493Z,10.17
2017-02-20T11:18:37.489Z,10.25
2017-02-20T11:19:37.513Z,10.23
2017-02-20T11:20:37.546Z,10.38
2017-02-20T11:21:37.560Z,10.38
2017-02-20T11:23:37.621Z,10.42
2017-02-20T11:24:37.618Z,10.51
2017-02-20T11:25:37.273Z,10.61
2017-02-20T11:26:37.291Z,10.56
2017-02-20T11:27:37.683Z,10.47
2017-02-20T11:28:37.716Z,10.53
2017-02-20T11:29:37.723Z,10.66
2017-02-20T11:30:37.737Z,10.71
2017-02-20T11:31:51.899Z,10.84
2017-02-20T11:32:37.814Z,10.81
2017-02-20T11:33:37.819Z,10.74
2017-02-20T11:34:37.846Z,10.74
2017-02-20T11:35:37.865Z,10.74
2017-02-20T11:36:37.889Z,10.85
2017-02-20T11:37:37.919Z,10.86
2017-02-20T11:38:37.924Z,10.76
2017-02-20T11:39:37.960Z,10.68
2017-02-20T11:40:37.973Z,10.56
2017-02-20T11:41:37.994Z,10.67
2017-02-20T11:42:38.021Z,10.63
2017-02-20T11:43:38.047Z,10.6
2017-02-20T11:44:38.044Z,10.52
2017-02-20T11:45:38.085Z,10.53
2017-02-20T11:46:37.704Z,10.42
2017-02-20T11:47:52.630Z,10.27
2017-02-20T11:48:38.133Z,10.27
2017-02-20T11:49:52.677Z,10.27
2017-02-20T11:50:38.174Z,10.23
2017-02-20T11:51:38.217Z,10.14
2017-02-20T11:52:38.224Z,10.17
2017-02-20T11:53:37.843Z,10.14
2017-02-20T11:54:37.883Z,10.26
2017-02-20T11:55:38.282Z,10.27
2017-02-20T11:56:37.945Z,10.23
2017-02-20T11:57:38.327Z,10.15
2017-02-20T11:58:37.961Z,10.14
2017-02-20T11:59:38.363Z,10.09
2017-02-20T12:00:38.397Z,9.99
2017-02-20T12:01:38.423Z,10.02
2017-02-20T12:02:38.445Z,9.97
2017-02-20T12:04:38.487Z,9.93
2017-02-20T12:05:38.479Z,9.91
2017-02-20T12:06:38.514Z,9.79
2017-02-20T12:07:38.545Z,9.87
2017-02-20T12:08:38.564Z,9.81
2017-02-20T12:09:38.586Z,9.83
2017-02-20T12:11:38.617Z,9.72
2017-02-20T12:13:38.683Z,9.69
2017-02-20T12:14:38.695Z,9.81
2017-02-20T12:15:38.700Z,9.79
2017-02-20T12:16:38.732Z,9.66
2017-02-20T12:17:39.135Z,9.78
2017-02-20T12:18:38.772Z,9.72
2017-02-20T12:19:53.305Z,9.74
2017-02-20T12:20:38.807Z,9.72
2017-02-20T12:21:53.345Z,9.66
2017-02-20T12:22:38.856Z,9.89
2017-02-20T12:23:53.387Z,9.83
2017-02-20T12:24:38.901Z,9.84
2017-02-20T12:25:38.915Z,9.84
2017-02-20T12:26:38.931Z,9.94
2017-02-20T12:27:38.954Z,9.89
2017-02-20T12:28:53.115Z,9.91
2017-02-20T12:29:38.607Z,9.91
2017-02-20T12:30:53.526Z,9.79
2017-02-20T12:32:39.061Z,9.91
2017-02-20T12:33:39.066Z,9.89
2017-02-20T12:34:53.621Z,9.83
2017-02-20T12:35:39.119Z,9.78
2017-02-20T12:36:39.132Z,9.9
2017-02-20T12:37:39.167Z,9.78
2017-02-20T12:38:39.210Z,9.94
2017-02-20T12:39:39.203Z,10.01
2017-02-20T12:40:39.237Z,9.94
2017-02-20T12:41:39.245Z,9.94
2017-02-20T12:42:39.272Z,10.01
2017-02-20T12:44:39.310Z,10.18
2017-02-20T12:45:39.325Z,10.23
2017-02-20T12:46:39.344Z,10.17
2017-02-20T12:47:39.364Z,10.25
2017-02-20T12:48:39.384Z,10.23
2017-02-20T12:49:53.928Z,10.15
2017-02-20T12:51:39.469Z,10.2
2017-02-20T12:52:39.463Z,10.26
2017-02-20T12:53:39.516Z,10.27
2017-02-20T12:54:39.519Z,10.18
2017-02-20T12:55:39.531Z,10.2
2017-02-20T12:56:39.558Z,10.05
2017-02-20T12:57:39.617Z,10.15
2017-02-20T12:58:39.211Z,10.05
2017-02-20T12:59:39.225Z,10.02
2017-02-20T13:00:39.652Z,10.17
2017-02-20T13:01:53.788Z,10.05
2017-02-20T13:02:39.305Z,9.94
2017-02-20T13:03:39.316Z,10.01
2017-02-20T13:04:39.324Z,9.91
2017-02-20T13:05:39.740Z,9.94
2017-02-20T13:06:54.290Z,9.93
2017-02-20T13:07:39.390Z,9.84
2017-02-20T13:08:39.808Z,9.86
2017-02-20T13:09:39.845Z,9.79
2017-02-20T13:10:39.462Z,9.81
2017-02-20T13:11:39.878Z,9.81
2017-02-20T13:12:39.903Z,9.72
2017-02-20T13:13:39.906Z,9.79
2017-02-20T13:14:39.919Z,9.79
2017-02-20T13:15:39.562Z,9.74
2017-02-20T13:16:54.483Z,9.86
2017-02-20T13:17:40.007Z,9.81
2017-02-20T13:18:39.632Z,9.81
2017-02-20T13:19:40.047Z,9.9
2017-02-20T13:20:39.679Z,9.99
2017-02-20T13:21:39.703Z,9.96
2017-02-20T13:22:54.618Z,9.89
2017-02-20T13:23:40.124Z,9.84
2017-02-20T13:24:54.260Z,9.93
2017-02-20T13:25:40.186Z,9.93
2017-02-20T13:26:39.786Z,9.94
2017-02-20T13:27:40.205Z,9.97
2017-02-20T13:28:40.233Z,9.93
2017-02-20T13:29:40.241Z,9.94
2017-02-20T13:30:40.280Z,9.96
2017-02-20T13:31:40.308Z,9.97
2017-02-20T13:32:40.325Z,9.94
2017-02-20T13:33:40.343Z,9.89
2017-02-20T13:34:54.858Z,9.89
2017-02-20T13:35:40.372Z,9.9
2017-02-20T13:36:40.386Z,9.81
2017-02-20T13:37:40.423Z,9.86
2017-02-20T13:38:54.949Z,9.81
2017-02-20T13:39:40.445Z,9.81
2017-02-20T13:41:40.506Z,9.71
2017-02-20T13:42:55.033Z,9.76
2017-02-20T13:43:40.547Z,9.71
2017-02-20T13:44:40.561Z,9.71
2017-02-20T13:45:40.641Z,9.69
2017-02-20T13:46:40.597Z,9.57
2017-02-20T13:47:40.620Z,9.64
2017-02-20T13:48:40.627Z,9.66
2017-02-20T13:49:55.169Z,9.58
2017-02-20T13:50:40.676Z,9.6
2017-02-20T13:51:40.703Z,9.56
2017-02-20T13:52:40.724Z,9.6
2017-02-20T13:54:55.280Z,9.54
2017-02-20T13:55:40.403Z,9.6
2017-02-20T13:56:40.801Z,9.43
2017-02-20T13:57:40.827Z,9.4
2017-02-20T13:58:40.854Z,9.48
2017-02-20T13:59:40.864Z,9.5
2017-02-20T14:00:40.883Z,9.5
2017-02-20T14:01:40.904Z,9.58
2017-02-20T14:02:40.931Z,9.54
2017-02-20T14:03:40.956Z,9.58
2017-02-20T14:04:40.966Z,9.64
2017-02-20T14:05:41.001Z,9.56